»·PEaware :: UAL345 KOAK-KONT

UAL345 :: KOAK-KONT

FLIGHT INFORMATION

Flight Status: Arrived
Operator:
United Airlines
More flights by this operator :: More flights under this callsign
Pilot: Sergei F. (8485)
Aircraft: BOEING 737-600
(B736)
More flights by this aircraft type
Origin: KOAK Metro Oakland Intl
United States
Destination: KONT Ontario Intl
United States
More flights between these airports :: More routes between these airports
Route: CNDEL5 KAYEX LOSHN EHF ZIGGY7
File this flight plan on PilotEdge
Remarks:
Altitude:
(Current/Filed)
39,000ft
Speed:
(Current/Filed)
452kts
Departed: 11-Nov-23 07:18 PM
Arrived: 11-Nov-23 08:25 PM
Distance/Time
Traveled:
314nm/1:07
Distance/Time
To Go:
Arrived

Flight Plot

Page will automatically refresh every two minutes.

Flight plan parsing failed; only flown route is shown


Map Options




Map Legend


Flown Route
Filed Route
Departure Airport
Arrival Airport
Navaid (VOR, NDB)
Fix

Horizontal Profiles

Position Reports

Time Latitude Longitude Heading Altitude Ground
Speed
11-Nov-23 18:23 37.711683 -122.216156 139 8ft 0kts
11-Nov-23 18:24 37.711683 -122.216156 139 8ft 0kts
11-Nov-23 18:25 37.711683 -122.216156 139 8ft 0kts
11-Nov-23 18:26 37.711683 -122.216156 139 8ft 0kts
11-Nov-23 18:27 37.711683 -122.216156 139 8ft 0kts
11-Nov-23 18:28 37.711683 -122.216156 139 8ft 0kts
11-Nov-23 18:29 37.711683 -122.216156 139 8ft 0kts
11-Nov-23 18:30 37.711683 -122.216156 139 8ft 0kts
11-Nov-23 18:31 37.711683 -122.216156 139 8ft 0kts
11-Nov-23 18:32 37.711683 -122.216156 139 8ft 0kts
11-Nov-23 18:33 37.711683 -122.216156 139 8ft 0kts
11-Nov-23 18:34 37.711683 -122.216156 139 8ft 0kts
11-Nov-23 18:35 37.711683 -122.216156 139 8ft 0kts
11-Nov-23 18:36 37.711683 -122.216156 139 8ft 0kts
11-Nov-23 18:37 37.711683 -122.216156 139 8ft 0kts
11-Nov-23 18:38 37.711683 -122.216156 139 8ft 0kts
11-Nov-23 18:39 37.711683 -122.216156 139 8ft 0kts
11-Nov-23 18:40 37.711683 -122.216156 139 8ft 0kts
11-Nov-23 18:41 37.711683 -122.216156 139 8ft 0kts
11-Nov-23 18:42 37.711683 -122.216156 139 8ft 0kts
11-Nov-23 18:43 37.711683 -122.216156 139 8ft 0kts
11-Nov-23 18:44 37.711683 -122.216156 139 8ft 0kts
11-Nov-23 18:45 37.711683 -122.216156 139 8ft 0kts
11-Nov-23 18:46 37.711683 -122.216156 139 8ft 0kts
11-Nov-23 18:47 37.711683 -122.216156 139 8ft 0kts
11-Nov-23 18:48 37.711683 -122.216156 139 8ft 0kts
11-Nov-23 18:49 37.711683 -122.216156 139 8ft 0kts
11-Nov-23 18:50 37.711683 -122.216156 139 8ft 0kts
11-Nov-23 18:51 37.711683 -122.216156 139 8ft 0kts
11-Nov-23 18:52 37.711683 -122.216156 139 8ft 0kts
11-Nov-23 18:53 37.711683 -122.216156 139 8ft 0kts
11-Nov-23 18:54 37.711683 -122.216156 139 8ft 0kts
11-Nov-23 18:55 37.711683 -122.216156 139 8ft 0kts
11-Nov-23 18:56 37.711683 -122.216156 139 8ft 0kts
11-Nov-23 18:57 37.711683 -122.216156 139 8ft 0kts
11-Nov-23 18:58 37.711683 -122.216156 139 8ft 0kts
11-Nov-23 18:59 37.711683 -122.216156 139 8ft 0kts
11-Nov-23 19:00 37.711683 -122.216156 139 8ft 0kts
11-Nov-23 19:01 37.711683 -122.216156 139 8ft 0kts
11-Nov-23 19:02 37.711748 -122.216226 138 8ft 1kts
11-Nov-23 19:03 37.712099 -122.216681 134 8ft 1kts
11-Nov-23 19:04 37.712413 -122.216932 165 9ft 0kts
11-Nov-23 19:05 37.712413 -122.216932 165 9ft 0kts
11-Nov-23 19:06 37.712413 -122.216932 165 9ft 0kts
11-Nov-23 19:07 37.712413 -122.216932 165 9ft 0kts
11-Nov-23 19:08 37.712413 -122.216932 165 8ft 0kts
11-Nov-23 19:09 37.712413 -122.216932 165 8ft 0kts
11-Nov-23 19:10 37.711966 -122.217081 217 8ft 5kts
11-Nov-23 19:11 37.710243 -122.218145 143 8ft 8kts
11-Nov-23 19:12 37.708797 -122.216083 169 8ft 7kts
11-Nov-23 19:13 37.707246 -122.217480 220 8ft 6kts
11-Nov-23 19:14 37.705540 -122.216576 129 8ft 12kts
11-Nov-23 19:15 37.703439 -122.213909 160 9ft 8kts
11-Nov-23 19:16 37.701653 -122.214346 259 7ft 4kts
11-Nov-23 19:17 37.705501 -122.220272 310 9ft 104kts
11-Nov-23 19:18 37.732650 -122.260052 309 1025ft 173kts
11-Nov-23 19:19 37.765311 -122.309723 310 2170ft 199kts
11-Nov-23 19:20 37.785700 -122.372544 236 4520ft 217kts
11-Nov-23 19:21 37.728461 -122.399588 193 7036ft 230kts
11-Nov-23 19:22 37.666310 -122.418939 193 9469ft 230kts
11-Nov-23 19:23 37.596720 -122.440856 193 11316ft 273kts
11-Nov-23 19:24 37.519248 -122.465264 193 14618ft 300kts
11-Nov-23 19:25 37.445749 -122.408860 129 16606ft 359kts
11-Nov-23 19:26 37.378699 -122.302452 129 18673ft 404kts
11-Nov-23 19:27 37.306560 -122.190342 130 21282ft 421kts
11-Nov-23 19:28 37.231208 -122.074107 131 23748ft 438kts
11-Nov-23 19:29 37.152907 -121.953753 131 25823ft 452kts
11-Nov-23 19:30 37.072300 -121.830290 131 27832ft 466kts
11-Nov-23 19:31 36.988765 -121.702826 131 29685ft 480kts
11-Nov-23 19:32 36.902951 -121.572386 132 31178ft 491kts
11-Nov-23 19:33 36.816390 -121.441282 132 32993ft 488kts
11-Nov-23 19:34 36.729873 -121.310802 132 34582ft 486kts
11-Nov-23 19:35 36.643549 -121.181116 132 35944ft 485kts
11-Nov-23 19:36 36.557604 -121.052485 132 37141ft 483kts
11-Nov-23 19:37 36.471676 -120.924284 132 38334ft 482kts
11-Nov-23 19:38 36.385915 -120.795856 132 39184ft 483kts
11-Nov-23 19:39 36.300790 -120.668789 132 39187ft 479kts
11-Nov-23 19:40 36.215838 -120.542520 132 39185ft 476kts
11-Nov-23 19:41 36.130927 -120.416789 132 39184ft 476kts
11-Nov-23 19:42 36.045554 -120.290828 132 39187ft 478kts
11-Nov-23 19:43 35.959839 -120.164817 132 39181ft 480kts
11-Nov-23 19:44 35.873918 -120.038938 132 39179ft 481kts
11-Nov-23 19:45 35.805521 -119.897476 116 39181ft 484kts
11-Nov-23 19:46 35.747168 -119.748187 116 39179ft 483kts
11-Nov-23 19:47 35.687892 -119.600169 116 39184ft 482kts
11-Nov-23 19:48 35.628400 -119.452300 116 39191ft 481kts
11-Nov-23 19:49 35.568864 -119.304925 116 39196ft 480kts
11-Nov-23 19:50 35.509563 -119.158743 116 39191ft 480kts
11-Nov-23 19:51 35.429171 -119.042222 144 39185ft 475kts
11-Nov-23 19:52 35.323761 -118.944260 143 39194ft 476kts
11-Nov-23 19:53 35.218907 -118.844804 143 39188ft 477kts
11-Nov-23 19:54 35.119173 -118.750437 143 39206ft 425kts
11-Nov-23 19:55 35.038237 -118.655245 128 39106ft 414kts
11-Nov-23 19:56 34.962920 -118.543912 129 35514ft 447kts
11-Nov-23 19:57 34.879456 -118.422642 128 29790ft 476kts
11-Nov-23 19:58 34.797187 -118.303305 128 25668ft 443kts
11-Nov-23 19:59 34.721631 -118.194027 128 23782ft 401kts
11-Nov-23 20:00 34.650674 -118.091620 127 20300ft 383kts
11-Nov-23 20:01 34.595046 -117.987407 115 17170ft 360kts
11-Nov-23 20:02 34.547967 -117.881373 117 14870ft 346kts
11-Nov-23 20:03 34.503690 -117.784529 118 14089ft 308kts
11-Nov-23 20:04 34.464872 -117.700004 117 14071ft 266kts
11-Nov-23 20:05 34.428879 -117.623767 121 14079ft 252kts
11-Nov-23 20:06 34.392348 -117.557753 122 14101ft 246kts
11-Nov-23 20:07 34.392348 -117.557753 122 14101ft 246kts
11-Nov-23 20:08 34.357366 -117.495184 122 14093ft 248kts
11-Nov-23 20:09 34.318975 -117.427126 122 13893ft 227kts
11-Nov-23 20:10 34.284006 -117.365730 122 12283ft 218kts
11-Nov-23 20:11 34.249989 -117.306217 122 10772ft 211kts
11-Nov-23 20:12 34.217343 -117.249672 122 9424ft 206kts
11-Nov-23 20:13 34.184560 -117.193001 122 9022ft 206kts
11-Nov-23 20:14 34.151737 -117.136459 122 9022ft 205kts
11-Nov-23 20:15 34.110966 -117.093486 185 8714ft 208kts
11-Nov-23 20:16 34.074813 -117.144934 241 7385ft 206kts
11-Nov-23 20:17 34.059717 -117.209508 270 6133ft 202kts
11-Nov-23 20:18 34.058463 -117.277365 269 4881ft 200kts
11-Nov-23 20:19 34.055322 -117.344079 270 4314ft 197kts
11-Nov-23 20:20 34.055199 -117.409144 271 3715ft 192kts
11-Nov-23 20:21 34.055092 -117.470016 270 2773ft 167kts
11-Nov-23 20:22 34.055019 -117.521653 271 1967ft 135kts
11-Nov-23 20:23 34.054959 -117.567826 270 1220ft 135kts
11-Nov-23 20:24 34.054995 -117.603744 267 943ft 36kts
11-Nov-23 20:25 34.055529 -117.610412 45 942ft 7kts
11-Nov-23 20:26 34.057886 -117.610007 53 943ft 11kts
11-Nov-23 20:27 34.058741 -117.607711 43 944ft 4kts
11-Nov-23 20:28 34.059538 -117.608039 314 943ft 1kts
11-Nov-23 20:29 34.059544 -117.608047 314 943ft 0kts
11-Nov-23 20:31 34.059544 -117.608047 314 943ft 0kts
11-Nov-23 20:32 34.059544 -117.608047 314 943ft 0kts
11-Nov-23 20:33 34.059544 -117.608047 314 943ft 0kts

Navigation Log

Ident Type
Flight plan parsing failed, navigation log unavailable